createdAt,value
2023-02-22T00:36:00.475Z,15.15
2023-02-22T00:38:27.047Z,11.35
2023-02-22T00:40:53.500Z,12.57
2023-02-22T00:43:19.899Z,15.65
2023-02-22T00:45:46.316Z,13.10
2023-02-22T00:48:13.397Z,12.52
2023-02-22T00:50:40.045Z,14.43
2023-02-22T00:53:07.475Z,18.92
2023-02-22T00:55:35.362Z,16.42
2023-02-22T00:58:04.845Z,17.17
2023-02-22T01:00:32.917Z,20.13
2023-02-22T01:02:59.869Z,15.95
2023-02-22T01:05:28.148Z,22.95
2023-02-22T01:07:56.004Z,18.02
2023-02-22T01:10:23.702Z,23.85
2023-02-22T01:12:50.609Z,23.30
2023-02-22T01:15:21.828Z,20.88
2023-02-22T01:17:48.879Z,21.05
2023-02-22T01:20:15.874Z,26.00
2023-02-22T01:22:43.423Z,20.42
2023-02-22T01:25:10.743Z,18.00
2023-02-22T01:27:38.502Z,19.55
2023-02-22T01:30:08.633Z,14.55
2023-02-22T01:32:38.434Z,18.70
2023-02-22T01:35:08.623Z,14.98
2023-02-22T01:37:35.900Z,22.63
2023-02-22T01:40:04.209Z,13.43
2023-02-22T01:42:30.796Z,17.73
2023-02-22T01:45:15.984Z,17.42
2023-02-22T01:47:42.911Z,15.35
2023-02-22T01:50:10.733Z,16.05
2023-02-22T01:52:37.636Z,16.42
2023-02-22T01:55:04.194Z,17.77
2023-02-22T01:57:36.723Z,18.42
2023-02-22T02:00:14.983Z,14.82
2023-02-22T02:02:43.124Z,13.00
2023-02-22T02:05:10.115Z,16.13
2023-02-22T02:07:37.592Z,16.45
2023-02-22T02:10:06.622Z,16.38
2023-02-22T02:12:35.815Z,18.23
2023-02-22T02:15:17.690Z,16.13
2023-02-22T02:17:48.971Z,16.75
2023-02-22T02:20:29.547Z,19.92
2023-02-22T02:23:01.040Z,13.00
2023-02-22T02:25:43.041Z,14.60
2023-02-22T02:28:46.990Z,11.77
2023-02-22T02:31:19.433Z,17.83
2023-02-22T02:33:59.177Z,13.20
2023-02-22T02:36:38.172Z,16.58
2023-02-22T02:39:16.947Z,13.52
2023-02-22T02:41:47.077Z,14.18
2023-02-22T02:44:25.383Z,16.08
2023-02-22T02:46:51.854Z,15.30
2023-02-22T02:49:22.281Z,19.70
2023-02-22T02:54:15.454Z,16.55
2023-02-22T02:56:43.749Z,15.18
2023-02-22T02:59:26.056Z,14.35
2023-02-22T03:01:55.767Z,15.27
2023-02-22T03:04:35.185Z,12.65
2023-02-22T03:07:13.994Z,16.67
2023-02-22T03:09:43.611Z,17.42
2023-02-22T03:12:17.999Z,15.52
2023-02-22T03:14:56.861Z,18.65
2023-02-22T03:17:26.938Z,16.52
2023-02-22T03:20:04.947Z,18.67
2023-02-22T03:22:33.676Z,18.23
2023-02-22T03:25:08.974Z,21.90
2023-02-22T03:27:43.848Z,19.15
2023-02-22T03:30:33.788Z,18.75
2023-02-22T03:33:01.604Z,18.58
2023-02-22T03:35:35.512Z,16.88
2023-02-22T03:38:04.246Z,24.23
2023-02-22T03:40:36.757Z,21.98
2023-02-22T03:43:18.851Z,18.60
2023-02-22T03:45:47.407Z,24.60
2023-02-22T03:48:23.734Z,19.30
2023-02-22T03:50:51.070Z,15.90
2023-02-22T03:53:18.627Z,18.08
2023-02-22T03:55:46.361Z,22.00
2023-02-22T03:58:13.992Z,19.52
2023-02-22T04:00:44.750Z,20.85
2023-02-22T04:03:11.820Z,20.58
2023-02-22T04:05:38.420Z,20.48
2023-02-22T04:08:06.481Z,21.25
2023-02-22T04:10:33.705Z,19.02
2023-02-22T04:13:00.195Z,20.88
2023-02-22T04:15:26.864Z,21.55
2023-02-22T04:17:53.336Z,22.50
2023-02-22T04:20:20.101Z,19.48
2023-02-22T04:22:47.338Z,23.98
2023-02-22T04:25:14.163Z,19.77
2023-02-22T04:27:40.570Z,25.40
2023-02-22T04:30:07.270Z,20.10
2023-02-22T04:32:33.768Z,22.77
2023-02-22T04:35:00.197Z,23.98
2023-02-22T04:37:26.560Z,24.10
2023-02-22T04:39:53.076Z,21.30
2023-02-22T04:42:19.929Z,28.85
2023-02-22T04:44:46.415Z,25.25
2023-02-22T04:47:12.988Z,25.17
2023-02-22T04:49:39.448Z,25.55
2023-02-22T04:52:05.810Z,25.25
2023-02-22T04:54:32.291Z,26.65
2023-02-22T04:56:58.806Z,19.92
2023-02-22T04:59:25.486Z,25.40
2023-02-22T05:01:51.984Z,24.90
2023-02-22T05:04:18.604Z,24.80
2023-02-22T05:06:44.965Z,26.73
2023-02-22T05:09:11.419Z,26.65
2023-02-22T05:11:37.892Z,22.15
2023-02-22T05:14:04.452Z,23.90
2023-02-22T05:16:30.975Z,24.10
2023-02-22T05:18:57.452Z,25.67
2023-02-22T05:21:24.225Z,23.92
2023-02-22T05:23:50.870Z,24.63
2023-02-22T05:26:17.564Z,24.92
2023-02-22T05:28:44.111Z,23.85
2023-02-22T05:31:10.694Z,25.52
2023-02-22T05:33:37.384Z,24.30
2023-02-22T05:36:03.938Z,22.98
2023-02-22T05:38:30.436Z,23.73
2023-02-22T05:40:57.137Z,20.95
2023-02-22T05:43:23.649Z,21.88
2023-02-22T05:45:50.306Z,23.75
2023-02-22T05:48:16.872Z,23.67
2023-02-22T05:50:44.159Z,22.98
2023-02-22T05:53:10.631Z,24.27
2023-02-22T05:55:37.130Z,24.23
2023-02-22T05:58:06.016Z,25.13
2023-02-22T06:00:32.654Z,21.67
2023-02-22T06:03:00.512Z,21.65
2023-02-22T06:05:27.666Z,21.08
2023-02-22T06:07:54.481Z,25.48
2023-02-22T06:10:20.950Z,25.05
2023-02-22T06:12:47.899Z,23.75
2023-02-22T06:15:18.962Z,21.40
2023-02-22T06:17:45.579Z,19.85
2023-02-22T06:20:13.433Z,20.15
2023-02-22T06:22:42.955Z,20.35
2023-02-22T06:25:10.277Z,23.08
2023-02-22T06:27:37.377Z,18.42
2023-02-22T06:30:04.062Z,27.83
2023-02-22T06:32:31.630Z,21.80
2023-02-22T06:34:58.288Z,21.92
